sensor_id;sensor_type;location;lat;lon;timestamp;temperature;humidity
20654;DHT22;21083;50.898;4.902;2023-07-08T00:02:11;22.60;99.90
20654;DHT22;21083;50.898;4.902;2023-07-08T00:04:39;22.40;99.90
20654;DHT22;21083;50.898;4.902;2023-07-08T00:07:11;22.50;99.90
20654;DHT22;21083;50.898;4.902;2023-07-08T00:09:39;22.40;99.90
20654;DHT22;21083;50.898;4.902;2023-07-08T00:12:10;22.30;99.90
20654;DHT22;21083;50.898;4.902;2023-07-08T00:14:37;22.20;99.90
20654;DHT22;21083;50.898;4.902;2023-07-08T00:17:09;22.10;99.90
20654;DHT22;21083;50.898;4.902;2023-07-08T00:19:37;22.10;99.90
20654;DHT22;21083;50.898;4.902;2023-07-08T00:22:10;22.10;99.90
20654;DHT22;21083;50.898;4.902;2023-07-08T00:24:39;22.00;99.90
20654;DHT22;21083;50.898;4.902;2023-07-08T00:27:09;22.00;99.90
20654;DHT22;21083;50.898;4.902;2023-07-08T00:29:37;22.00;99.90
20654;DHT22;21083;50.898;4.902;2023-07-08T00:32:10;22.00;99.90
20654;DHT22;21083;50.898;4.902;2023-07-08T00:34:37;22.10;99.90
20654;DHT22;21083;50.898;4.902;2023-07-08T00:37:04;22.00;99.90
20654;DHT22;21083;50.898;4.902;2023-07-08T00:39:31;21.80;99.90
20654;DHT22;21083;50.898;4.902;2023-07-08T00:42:00;21.90;99.90
20654;DHT22;21083;50.898;4.902;2023-07-08T00:44:28;21.80;99.90
20654;DHT22;21083;50.898;4.902;2023-07-08T00:47:03;21.70;99.90
20654;DHT22;21083;50.898;4.902;2023-07-08T00:49:36;21.70;99.90
20654;DHT22;21083;50.898;4.902;2023-07-08T00:52:18;21.50;99.90
20654;DHT22;21083;50.898;4.902;2023-07-08T00:54:46;21.50;99.90
20654;DHT22;21083;50.898;4.902;2023-07-08T00:57:17;21.30;99.90
20654;DHT22;21083;50.898;4.902;2023-07-08T00:59:47;21.40;99.90
20654;DHT22;21083;50.898;4.902;2023-07-08T01:02:16;21.40;99.90
20654;DHT22;21083;50.898;4.902;2023-07-08T01:04:52;21.40;99.90
20654;DHT22;21083;50.898;4.902;2023-07-08T01:07:23;21.50;99.90
20654;DHT22;21083;50.898;4.902;2023-07-08T01:09:54;21.40;99.90
20654;DHT22;21083;50.898;4.902;2023-07-08T01:12:26;21.40;99.90
20654;DHT22;21083;50.898;4.902;2023-07-08T01:14:54;21.30;99.90
20654;DHT22;21083;50.898;4.902;2023-07-08T01:17:22;21.30;99.90
20654;DHT22;21083;50.898;4.902;2023-07-08T01:19:50;21.30;99.90
20654;DHT22;21083;50.898;4.902;2023-07-08T01:22:22;21.20;99.90
20654;DHT22;21083;50.898;4.902;2023-07-08T01:24:49;21.10;99.90
20654;DHT22;21083;50.898;4.902;2023-07-08T01:27:18;21.00;99.90
20654;DHT22;21083;50.898;4.902;2023-07-08T01:29:46;21.00;99.90
20654;DHT22;21083;50.898;4.902;2023-07-08T01:32:14;20.90;99.90
20654;DHT22;21083;50.898;4.902;2023-07-08T01:34:45;20.90;99.90
20654;DHT22;21083;50.898;4.902;2023-07-08T01:37:29;20.80;99.90
20654;DHT22;21083;50.898;4.902;2023-07-08T01:39:56;20.80;99.90
20654;DHT22;21083;50.898;4.902;2023-07-08T01:42:23;20.70;99.90
20654;DHT22;21083;50.898;4.902;2023-07-08T01:44:51;20.70;99.90
20654;DHT22;21083;50.898;4.902;2023-07-08T01:47:20;20.70;99.90
20654;DHT22;21083;50.898;4.902;2023-07-08T01:49:49;20.60;99.90
20654;DHT22;21083;50.898;4.902;2023-07-08T01:52:17;20.50;99.90
20654;DHT22;21083;50.898;4.902;2023-07-08T01:54:54;20.40;99.90
20654;DHT22;21083;50.898;4.902;2023-07-08T01:57:22;20.40;99.90
20654;DHT22;21083;50.898;4.902;2023-07-08T01:59:49;20.30;99.90
20654;DHT22;21083;50.898;4.902;2023-07-08T02:02:15;20.30;99.90
20654;DHT22;21083;50.898;4.902;2023-07-08T02:04:43;20.30;99.90
20654;DHT22;21083;50.898;4.902;2023-07-08T02:07:10;20.40;99.90
20654;DHT22;21083;50.898;4.902;2023-07-08T02:09:36;20.40;99.90
20654;DHT22;21083;50.898;4.902;2023-07-08T02:12:05;20.30;99.90
20654;DHT22;21083;50.898;4.902;2023-07-08T02:14:32;20.30;99.90
20654;DHT22;21083;50.898;4.902;2023-07-08T02:16:59;20.30;99.90
20654;DHT22;21083;50.898;4.902;2023-07-08T02:19:26;20.20;99.90
20654;DHT22;21083;50.898;4.902;2023-07-08T02:21:54;20.10;99.90
20654;DHT22;21083;50.898;4.902;2023-07-08T02:24:20;20.20;99.90
20654;DHT22;21083;50.898;4.902;2023-07-08T02:26:48;20.20;99.90
20654;DHT22;21083;50.898;4.902;2023-07-08T02:29:17;20.10;99.90
20654;DHT22;21083;50.898;4.902;2023-07-08T02:31:44;20.10;99.90
20654;DHT22;21083;50.898;4.902;2023-07-08T02:34:10;20.10;99.90
20654;DHT22;21083;50.898;4.902;2023-07-08T02:36:37;20.10;99.90
20654;DHT22;21083;50.898;4.902;2023-07-08T02:39:04;20.20;99.90
20654;DHT22;21083;50.898;4.902;2023-07-08T02:41:32;20.10;99.90
20654;DHT22;21083;50.898;4.902;2023-07-08T02:43:59;20.10;99.90
20654;DHT22;21083;50.898;4.902;2023-07-08T02:46:27;20.10;99.90
20654;DHT22;21083;50.898;4.902;2023-07-08T02:48:54;20.20;99.90
20654;DHT22;21083;50.898;4.902;2023-07-08T02:51:21;20.20;99.90
20654;DHT22;21083;50.898;4.902;2023-07-08T02:53:49;20.30;99.90
20654;DHT22;21083;50.898;4.902;2023-07-08T02:56:16;20.30;99.90
20654;DHT22;21083;50.898;4.902;2023-07-08T02:58:43;20.30;99.90
20654;DHT22;21083;50.898;4.902;2023-07-08T03:01:10;20.20;99.90
20654;DHT22;21083;50.898;4.902;2023-07-08T03:03:38;20.20;99.90
20654;DHT22;21083;50.898;4.902;2023-07-08T03:06:05;20.10;99.90
20654;DHT22;21083;50.898;4.902;2023-07-08T03:08:32;19.90;99.90
20654;DHT22;21083;50.898;4.902;2023-07-08T03:11:00;19.90;99.90
20654;DHT22;21083;50.898;4.902;2023-07-08T03:13:29;19.90;99.90
20654;DHT22;21083;50.898;4.902;2023-07-08T03:15:57;19.90;99.90
20654;DHT22;21083;50.898;4.902;2023-07-08T03:18:25;20.00;99.90
20654;DHT22;21083;50.898;4.902;2023-07-08T03:20:54;20.00;99.90
20654;DHT22;21083;50.898;4.902;2023-07-08T03:23:22;19.90;99.90
20654;DHT22;21083;50.898;4.902;2023-07-08T03:25:49;19.90;99.90
20654;DHT22;21083;50.898;4.902;2023-07-08T03:28:16;20.00;99.90
20654;DHT22;21083;50.898;4.902;2023-07-08T03:30:44;20.00;99.90
20654;DHT22;21083;50.898;4.902;2023-07-08T03:33:12;20.00;99.90
20654;DHT22;21083;50.898;4.902;2023-07-08T03:35:40;20.00;99.90
20654;DHT22;21083;50.898;4.902;2023-07-08T03:38:08;20.00;99.90
20654;DHT22;21083;50.898;4.902;2023-07-08T03:40:35;19.90;99.90
20654;DHT22;21083;50.898;4.902;2023-07-08T03:43:02;19.80;99.90
20654;DHT22;21083;50.898;4.902;2023-07-08T03:45:29;19.80;99.90
20654;DHT22;21083;50.898;4.902;2023-07-08T03:47:56;19.60;99.90
20654;DHT22;21083;50.898;4.902;2023-07-08T03:50:25;19.50;99.90
20654;DHT22;21083;50.898;4.902;2023-07-08T03:52:53;19.40;99.90
20654;DHT22;21083;50.898;4.902;2023-07-08T03:55:23;19.40;99.90
20654;DHT22;21083;50.898;4.902;2023-07-08T03:57:50;19.40;99.90
20654;DHT22;21083;50.898;4.902;2023-07-08T04:00:16;19.40;99.90
20654;DHT22;21083;50.898;4.902;2023-07-08T04:02:45;19.30;99.90
20654;DHT22;21083;50.898;4.902;2023-07-08T04:05:13;19.30;99.90
20654;DHT22;21083;50.898;4.902;2023-07-08T04:07:41;19.30;99.90
20654;DHT22;21083;50.898;4.902;2023-07-08T04:10:08;19.40;99.90
20654;DHT22;21083;50.898;4.902;2023-07-08T04:12:37;19.40;99.90
20654;DHT22;21083;50.898;4.902;2023-07-08T04:15:05;19.30;99.90
20654;DHT22;21083;50.898;4.902;2023-07-08T04:17:32;19.40;99.90
20654;DHT22;21083;50.898;4.902;2023-07-08T04:19:59;19.50;99.90
20654;DHT22;21083;50.898;4.902;2023-07-08T04:22:30;19.60;99.90
20654;DHT22;21083;50.898;4.902;2023-07-08T04:24:57;19.60;99.90
20654;DHT22;21083;50.898;4.902;2023-07-08T04:27:23;19.60;99.90
20654;DHT22;21083;50.898;4.902;2023-07-08T04:29:52;19.60;99.90
20654;DHT22;21083;50.898;4.902;2023-07-08T04:32:19;19.50;99.90
20654;DHT22;21083;50.898;4.902;2023-07-08T04:34:45;19.40;99.90
20654;DHT22;21083;50.898;4.902;2023-07-08T04:37:12;19.40;99.90
20654;DHT22;21083;50.898;4.902;2023-07-08T04:39:39;19.30;99.90
20654;DHT22;21083;50.898;4.902;2023-07-08T04:42:06;19.30;99.90
20654;DHT22;21083;50.898;4.902;2023-07-08T04:44:33;19.30;99.90
20654;DHT22;21083;50.898;4.902;2023-07-08T04:47:01;19.40;99.90
20654;DHT22;21083;50.898;4.902;2023-07-08T04:49:28;19.40;99.90
20654;DHT22;21083;50.898;4.902;2023-07-08T04:51:59;19.40;99.90
20654;DHT22;21083;50.898;4.902;2023-07-08T04:54:27;19.40;99.90
20654;DHT22;21083;50.898;4.902;2023-07-08T04:56:54;19.40;99.90
20654;DHT22;21083;50.898;4.902;2023-07-08T04:59:24;19.50;99.90
20654;DHT22;21083;50.898;4.902;2023-07-08T05:01:52;19.50;99.90
20654;DHT22;21083;50.898;4.902;2023-07-08T05:04:21;19.50;99.90
20654;DHT22;21083;50.898;4.902;2023-07-08T05:06:49;19.50;99.90
20654;DHT22;21083;50.898;4.902;2023-07-08T05:09:16;19.60;99.90
20654;DHT22;21083;50.898;4.902;2023-07-08T05:11:43;19.60;99.90
20654;DHT22;21083;50.898;4.902;2023-07-08T05:14:11;19.60;99.90
20654;DHT22;21083;50.898;4.902;2023-07-08T05:16:38;19.60;99.90
20654;DHT22;21083;50.898;4.902;2023-07-08T05:19:06;19.70;99.90
20654;DHT22;21083;50.898;4.902;2023-07-08T05:21:34;19.80;99.90
20654;DHT22;21083;50.898;4.902;2023-07-08T05:24:01;19.90;99.90
20654;DHT22;21083;50.898;4.902;2023-07-08T05:26:28;19.90;99.90
20654;DHT22;21083;50.898;4.902;2023-07-08T05:28:55;20.00;99.90
20654;DHT22;21083;50.898;4.902;2023-07-08T05:31:22;20.10;99.90
20654;DHT22;21083;50.898;4.902;2023-07-08T05:33:49;20.20;99.90
20654;DHT22;21083;50.898;4.902;2023-07-08T05:36:16;20.30;99.90
20654;DHT22;21083;50.898;4.902;2023-07-08T05:38:44;20.30;99.90
20654;DHT22;21083;50.898;4.902;2023-07-08T05:41:11;20.40;99.90
20654;DHT22;21083;50.898;4.902;2023-07-08T05:43:38;20.40;99.90
20654;DHT22;21083;50.898;4.902;2023-07-08T05:46:05;20.60;99.90
20654;DHT22;21083;50.898;4.902;2023-07-08T05:48:32;20.60;99.90
20654;DHT22;21083;50.898;4.902;2023-07-08T05:50:59;20.60;99.90
20654;DHT22;21083;50.898;4.902;2023-07-08T05:53:26;20.70;99.90
20654;DHT22;21083;50.898;4.902;2023-07-08T05:55:54;20.80;99.90
20654;DHT22;21083;50.898;4.902;2023-07-08T05:58:22;20.90;99.90
20654;DHT22;21083;50.898;4.902;2023-07-08T06:00:55;20.90;99.90
20654;DHT22;21083;50.898;4.902;2023-07-08T06:03:22;21.00;99.90
20654;DHT22;21083;50.898;4.902;2023-07-08T06:05:49;21.10;99.90
20654;DHT22;21083;50.898;4.902;2023-07-08T06:08:16;21.20;99.90
20654;DHT22;21083;50.898;4.902;2023-07-08T06:10:44;21.30;99.90
20654;DHT22;21083;50.898;4.902;2023-07-08T06:13:12;21.30;99.90
20654;DHT22;21083;50.898;4.902;2023-07-08T06:15:41;21.40;99.90
20654;DHT22;21083;50.898;4.902;2023-07-08T06:18:08;21.50;99.90
20654;DHT22;21083;50.898;4.902;2023-07-08T06:20:35;21.60;99.90
20654;DHT22;21083;50.898;4.902;2023-07-08T06:23:02;21.70;99.90
20654;DHT22;21083;50.898;4.902;2023-07-08T06:25:29;21.80;99.90
20654;DHT22;21083;50.898;4.902;2023-07-08T06:27:56;21.90;99.90
20654;DHT22;21083;50.898;4.902;2023-07-08T06:30:24;22.00;99.90
20654;DHT22;21083;50.898;4.902;2023-07-08T06:32:51;22.10;99.90
20654;DHT22;21083;50.898;4.902;2023-07-08T06:35:18;22.20;99.90
20654;DHT22;21083;50.898;4.902;2023-07-08T06:37:45;22.40;99.90
20654;DHT22;21083;50.898;4.902;2023-07-08T06:40:12;22.50;99.90
20654;DHT22;21083;50.898;4.902;2023-07-08T06:42:39;22.60;99.90
20654;DHT22;21083;50.898;4.902;2023-07-08T06:45:07;22.80;99.90
20654;DHT22;21083;50.898;4.902;2023-07-08T06:47:35;22.90;99.90
20654;DHT22;21083;50.898;4.902;2023-07-08T06:50:02;23.00;99.90
20654;DHT22;21083;50.898;4.902;2023-07-08T06:52:29;23.20;99.90
20654;DHT22;21083;50.898;4.902;2023-07-08T06:54:59;23.30;99.90
20654;DHT22;21083;50.898;4.902;2023-07-08T06:57:27;23.50;99.90
20654;DHT22;21083;50.898;4.902;2023-07-08T06:59:54;23.70;99.90
20654;DHT22;21083;50.898;4.902;2023-07-08T07:02:21;23.80;99.90
20654;DHT22;21083;50.898;4.902;2023-07-08T07:04:49;23.80;99.90
20654;DHT22;21083;50.898;4.902;2023-07-08T07:07:16;23.90;99.90
20654;DHT22;21083;50.898;4.902;2023-07-08T07:09:43;24.00;99.90
20654;DHT22;21083;50.898;4.902;2023-07-08T07:12:10;24.10;99.90
20654;DHT22;21083;50.898;4.902;2023-07-08T07:14:37;24.20;99.90
20654;DHT22;21083;50.898;4.902;2023-07-08T07:17:04;24.30;99.90
20654;DHT22;21083;50.898;4.902;2023-07-08T07:19:31;24.40;99.90
20654;DHT22;21083;50.898;4.902;2023-07-08T07:21:59;24.50;99.90
20654;DHT22;21083;50.898;4.902;2023-07-08T07:24:26;24.70;99.90
20654;DHT22;21083;50.898;4.902;2023-07-08T07:26:53;24.70;99.90
20654;DHT22;21083;50.898;4.902;2023-07-08T07:29:22;24.90;99.90
20654;DHT22;21083;50.898;4.902;2023-07-08T07:31:49;25.00;99.90
20654;DHT22;21083;50.898;4.902;2023-07-08T07:34:17;25.20;99.90
20654;DHT22;21083;50.898;4.902;2023-07-08T07:36:44;25.30;99.90
20654;DHT22;21083;50.898;4.902;2023-07-08T07:39:12;25.40;99.90
20654;DHT22;21083;50.898;4.902;2023-07-08T07:41:39;25.50;99.90
20654;DHT22;21083;50.898;4.902;2023-07-08T07:44:06;25.60;99.90
20654;DHT22;21083;50.898;4.902;2023-07-08T07:46:33;25.70;99.90
20654;DHT22;21083;50.898;4.902;2023-07-08T07:49:00;25.80;99.90
20654;DHT22;21083;50.898;4.902;2023-07-08T07:51:27;25.90;99.90
20654;DHT22;21083;50.898;4.902;2023-07-08T07:53:54;26.10;99.90
20654;DHT22;21083;50.898;4.902;2023-07-08T07:56:22;26.20;99.90
20654;DHT22;21083;50.898;4.902;2023-07-08T07:58:49;26.30;99.90
20654;DHT22;21083;50.898;4.902;2023-07-08T08:01:16;26.40;99.90
20654;DHT22;21083;50.898;4.902;2023-07-08T08:03:43;26.60;99.90
20654;DHT22;21083;50.898;4.902;2023-07-08T08:06:10;26.70;99.90
20654;DHT22;21083;50.898;4.902;2023-07-08T08:08:37;26.80;99.90
20654;DHT22;21083;50.898;4.902;2023-07-08T08:11:04;26.90;99.90
20654;DHT22;21083;50.898;4.902;2023-07-08T08:13:33;27.00;99.90
20654;DHT22;21083;50.898;4.902;2023-07-08T08:16:00;27.10;99.90
20654;DHT22;21083;50.898;4.902;2023-07-08T08:18:26;27.30;99.90
20654;DHT22;21083;50.898;4.902;2023-07-08T08:20:53;27.40;99.90
20654;DHT22;21083;50.898;4.902;2023-07-08T08:23:20;27.50;99.90
20654;DHT22;21083;50.898;4.902;2023-07-08T08:25:48;27.70;99.90
20654;DHT22;21083;50.898;4.902;2023-07-08T08:28:16;27.70;99.90
20654;DHT22;21083;50.898;4.902;2023-07-08T08:30:48;27.80;99.90
20654;DHT22;21083;50.898;4.902;2023-07-08T08:33:15;27.80;99.90
20654;DHT22;21083;50.898;4.902;2023-07-08T08:35:42;27.90;99.90
20654;DHT22;21083;50.898;4.902;2023-07-08T08:38:09;27.90;99.90
20654;DHT22;21083;50.898;4.902;2023-07-08T08:40:37;28.10;99.90
20654;DHT22;21083;50.898;4.902;2023-07-08T08:43:09;28.30;99.90
20654;DHT22;21083;50.898;4.902;2023-07-08T08:45:41;28.30;99.90
20654;DHT22;21083;50.898;4.902;2023-07-08T08:48:15;28.40;99.90
20654;DHT22;21083;50.898;4.902;2023-07-08T08:50:51;28.40;99.90
20654;DHT22;21083;50.898;4.902;2023-07-08T08:53:20;28.60;99.90
20654;DHT22;21083;50.898;4.902;2023-07-08T08:55:56;28.70;99.90
20654;DHT22;21083;50.898;4.902;2023-07-08T08:58:30;28.70;99.90
20654;DHT22;21083;50.898;4.902;2023-07-08T09:01:00;28.80;99.90
20654;DHT22;21083;50.898;4.902;2023-07-08T09:03:37;29.00;99.90
20654;DHT22;21083;50.898;4.902;2023-07-08T09:06:14;29.30;99.90
20654;DHT22;21083;50.898;4.902;2023-07-08T09:08:42;29.30;99.90
20654;DHT22;21083;50.898;4.902;2023-07-08T09:11:21;29.40;99.90
20654;DHT22;21083;50.898;4.902;2023-07-08T09:13:51;29.50;99.90
20654;DHT22;21083;50.898;4.902;2023-07-08T09:16:24;29.60;99.90
20654;DHT22;21083;50.898;4.902;2023-07-08T09:18:59;29.70;99.90
20654;DHT22;21083;50.898;4.902;2023-07-08T09:21:31;29.90;99.90
20654;DHT22;21083;50.898;4.902;2023-07-08T09:24:04;29.90;99.90
20654;DHT22;21083;50.898;4.902;2023-07-08T09:26:34;30.00;99.90
20654;DHT22;21083;50.898;4.902;2023-07-08T09:29:08;30.20;99.90
20654;DHT22;21083;50.898;4.902;2023-07-08T09:31:38;30.40;99.90
20654;DHT22;21083;50.898;4.902;2023-07-08T09:34:11;30.50;99.90
20654;DHT22;21083;50.898;4.902;2023-07-08T09:36:42;30.60;99.90
20654;DHT22;21083;50.898;4.902;2023-07-08T09:39:11;30.80;99.90
20654;DHT22;21083;50.898;4.902;2023-07-08T09:41:39;30.80;99.90
20654;DHT22;21083;50.898;4.902;2023-07-08T09:44:15;30.80;99.90
20654;DHT22;21083;50.898;4.902;2023-07-08T09:46:43;30.90;99.90
20654;DHT22;21083;50.898;4.902;2023-07-08T09:49:21;31.00;99.90
20654;DHT22;21083;50.898;4.902;2023-07-08T09:51:49;31.10;99.90
20654;DHT22;21083;50.898;4.902;2023-07-08T09:54:17;31.20;99.90
20654;DHT22;21083;50.898;4.902;2023-07-08T09:56:52;31.30;99.90
20654;DHT22;21083;50.898;4.902;2023-07-08T09:59:23;31.40;99.90
20654;DHT22;21083;50.898;4.902;2023-07-08T10:01:53;31.60;99.90
20654;DHT22;21083;50.898;4.902;2023-07-08T10:04:22;31.70;99.90
20654;DHT22;21083;50.898;4.902;2023-07-08T10:06:49;31.70;99.90
20654;DHT22;21083;50.898;4.902;2023-07-08T10:09:20;31.80;99.90
20654;DHT22;21083;50.898;4.902;2023-07-08T10:11:50;32.00;99.90
20654;DHT22;21083;50.898;4.902;2023-07-08T10:14:25;32.10;99.90
20654;DHT22;21083;50.898;4.902;2023-07-08T10:16:53;32.30;99.90
20654;DHT22;21083;50.898;4.902;2023-07-08T10:19:21;32.10;99.90
20654;DHT22;21083;50.898;4.902;2023-07-08T10:21:55;32.10;99.90
20654;DHT22;21083;50.898;4.902;2023-07-08T10:24:45;32.20;99.90
20654;DHT22;21083;50.898;4.902;2023-07-08T10:27:20;32.30;99.90
20654;DHT22;21083;50.898;4.902;2023-07-08T10:29:53;32.50;99.90
20654;DHT22;21083;50.898;4.902;2023-07-08T10:32:31;32.60;99.90
20654;DHT22;21083;50.898;4.902;2023-07-08T10:35:08;32.70;99.90
20654;DHT22;21083;50.898;4.902;2023-07-08T10:37:47;32.80;99.90
20654;DHT22;21083;50.898;4.902;2023-07-08T10:40:28;32.70;99.90
20654;DHT22;21083;50.898;4.902;2023-07-08T10:43:16;32.80;99.90
20654;DHT22;21083;50.898;4.902;2023-07-08T10:45:53;32.90;99.90
20654;DHT22;21083;50.898;4.902;2023-07-08T10:51:23;33.10;99.90
20654;DHT22;21083;50.898;4.902;2023-07-08T10:54:02;33.20;99.90
20654;DHT22;21083;50.898;4.902;2023-07-08T10:56:37;33.30;99.90
20654;DHT22;21083;50.898;4.902;2023-07-08T10:59:22;33.50;99.90
20654;DHT22;21083;50.898;4.902;2023-07-08T11:02:13;33.70;99.90
20654;DHT22;21083;50.898;4.902;2023-07-08T11:04:49;33.70;99.90
20654;DHT22;21083;50.898;4.902;2023-07-08T11:07:30;33.80;99.90
20654;DHT22;21083;50.898;4.902;2023-07-08T11:10:02;33.90;99.90
20654;DHT22;21083;50.898;4.902;2023-07-08T11:12:34;33.90;99.90
20654;DHT22;21083;50.898;4.902;2023-07-08T11:15:08;34.10;99.90
20654;DHT22;21083;50.898;4.902;2023-07-08T11:17:43;34.40;99.90
20654;DHT22;21083;50.898;4.902;2023-07-08T11:20:16;34.70;99.90
20654;DHT22;21083;50.898;4.902;2023-07-08T11:22:49;34.90;99.90
20654;DHT22;21083;50.898;4.902;2023-07-08T11:25:19;35.00;99.90
20654;DHT22;21083;50.898;4.902;2023-07-08T11:27:52;35.20;99.90
20654;DHT22;21083;50.898;4.902;2023-07-08T11:30:22;35.20;99.90
20654;DHT22;21083;50.898;4.902;2023-07-08T11:32:57;35.20;99.90
20654;DHT22;21083;50.898;4.902;2023-07-08T11:35:33;35.00;99.90
20654;DHT22;21083;50.898;4.902;2023-07-08T11:38:03;34.90;99.90
20654;DHT22;21083;50.898;4.902;2023-07-08T11:40:32;35.00;99.90
20654;DHT22;21083;50.898;4.902;2023-07-08T11:43:05;35.10;99.90
20654;DHT22;21083;50.898;4.902;2023-07-08T11:45:35;35.10;99.90
20654;DHT22;21083;50.898;4.902;2023-07-08T11:48:10;34.90;99.90
20654;DHT22;21083;50.898;4.902;2023-07-08T11:50:41;35.00;99.90
20654;DHT22;21083;50.898;4.902;2023-07-08T11:53:11;35.30;99.90
20654;DHT22;21083;50.898;4.902;2023-07-08T11:55:43;35.40;99.90
20654;DHT22;21083;50.898;4.902;2023-07-08T11:58:22;35.60;99.90
20654;DHT22;21083;50.898;4.902;2023-07-08T12:00:57;35.80;99.90
20654;DHT22;21083;50.898;4.902;2023-07-08T12:03:32;35.90;99.90
20654;DHT22;21083;50.898;4.902;2023-07-08T12:06:00;36.00;99.90
20654;DHT22;21083;50.898;4.902;2023-07-08T12:08:36;36.10;99.90
20654;DHT22;21083;50.898;4.902;2023-07-08T12:11:11;36.20;99.90
20654;DHT22;21083;50.898;4.902;2023-07-08T12:13:38;36.30;99.90
20654;DHT22;21083;50.898;4.902;2023-07-08T12:16:09;36.30;99.90
20654;DHT22;21083;50.898;4.902;2023-07-08T12:18:39;36.70;99.90
20654;DHT22;21083;50.898;4.902;2023-07-08T12:21:11;36.80;99.90
20654;DHT22;21083;50.898;4.902;2023-07-08T12:23:46;36.90;99.90
20654;DHT22;21083;50.898;4.902;2023-07-08T12:26:13;37.10;99.90
20654;DHT22;21083;50.898;4.902;2023-07-08T12:28:41;37.30;99.90
20654;DHT22;21083;50.898;4.902;2023-07-08T12:31:15;37.40;99.90
20654;DHT22;21083;50.898;4.902;2023-07-08T12:33:42;37.30;99.90
20654;DHT22;21083;50.898;4.902;2023-07-08T12:36:13;37.40;99.90
20654;DHT22;21083;50.898;4.902;2023-07-08T12:38:45;37.40;99.90
20654;DHT22;21083;50.898;4.902;2023-07-08T12:41:16;37.30;99.90
20654;DHT22;21083;50.898;4.902;2023-07-08T12:43:44;37.10;99.90
20654;DHT22;21083;50.898;4.902;2023-07-08T12:46:12;36.70;99.90
20654;DHT22;21083;50.898;4.902;2023-07-08T12:48:40;36.30;99.90
20654;DHT22;21083;50.898;4.902;2023-07-08T12:51:12;36.20;99.90
20654;DHT22;21083;50.898;4.902;2023-07-08T12:53:39;35.70;99.90
20654;DHT22;21083;50.898;4.902;2023-07-08T12:56:08;35.20;99.90
20654;DHT22;21083;50.898;4.902;2023-07-08T12:58:40;35.00;99.90
20654;DHT22;21083;50.898;4.902;2023-07-08T13:01:08;34.80;99.90
20654;DHT22;21083;50.898;4.902;2023-07-08T13:03:42;34.50;99.90
20654;DHT22;21083;50.898;4.902;2023-07-08T13:06:11;34.10;99.90
20654;DHT22;21083;50.898;4.902;2023-07-08T13:08:39;34.10;99.90
20654;DHT22;21083;50.898;4.902;2023-07-08T13:11:08;33.90;99.90
20654;DHT22;21083;50.898;4.902;2023-07-08T13:13:37;33.70;99.90
20654;DHT22;21083;50.898;4.902;2023-07-08T13:16:05;33.60;99.90
20654;DHT22;21083;50.898;4.902;2023-07-08T13:18:34;33.40;99.90
20654;DHT22;21083;50.898;4.902;2023-07-08T13:21:03;33.30;99.90
20654;DHT22;21083;50.898;4.902;2023-07-08T13:23:32;32.70;99.90
20654;DHT22;21083;50.898;4.902;2023-07-08T13:26:00;32.60;99.90
20654;DHT22;21083;50.898;4.902;2023-07-08T13:28:30;32.00;99.90
20654;DHT22;21083;50.898;4.902;2023-07-08T13:31:12;31.60;99.90
20654;DHT22;21083;50.898;4.902;2023-07-08T13:33:45;31.40;99.90
20654;DHT22;21083;50.898;4.902;2023-07-08T13:36:13;30.80;99.90
20654;DHT22;21083;50.898;4.902;2023-07-08T13:38:43;30.50;99.90
20654;DHT22;21083;50.898;4.902;2023-07-08T13:41:11;30.40;99.90
20654;DHT22;21083;50.898;4.902;2023-07-08T13:43:46;30.40;99.90
20654;DHT22;21083;50.898;4.902;2023-07-08T13:46:29;30.40;99.90
20654;DHT22;21083;50.898;4.902;2023-07-08T13:49:00;30.30;99.90
20654;DHT22;21083;50.898;4.902;2023-07-08T13:51:30;30.20;99.90
20654;DHT22;21083;50.898;4.902;2023-07-08T13:54:00;30.10;99.90
20654;DHT22;21083;50.898;4.902;2023-07-08T13:56:31;30.30;99.90
20654;DHT22;21083;50.898;4.902;2023-07-08T13:59:04;30.70;99.90
20654;DHT22;21083;50.898;4.902;2023-07-08T14:01:34;31.40;99.90
20654;DHT22;21083;50.898;4.902;2023-07-08T14:04:02;32.00;99.90
20654;DHT22;21083;50.898;4.902;2023-07-08T14:06:34;32.60;99.90
20654;DHT22;21083;50.898;4.902;2023-07-08T14:09:11;32.90;99.90
20654;DHT22;21083;50.898;4.902;2023-07-08T14:11:38;33.00;99.90
20654;DHT22;21083;50.898;4.902;2023-07-08T14:14:07;33.00;99.90
20654;DHT22;21083;50.898;4.902;2023-07-08T14:16:36;32.90;99.90
20654;DHT22;21083;50.898;4.902;2023-07-08T14:19:05;33.30;99.90
20654;DHT22;21083;50.898;4.902;2023-07-08T14:21:34;33.60;99.90
20654;DHT22;21083;50.898;4.902;2023-07-08T14:24:02;33.60;99.90
20654;DHT22;21083;50.898;4.902;2023-07-08T14:26:29;33.80;99.90
20654;DHT22;21083;50.898;4.902;2023-07-08T14:28:56;33.60;99.90
20654;DHT22;21083;50.898;4.902;2023-07-08T14:31:25;33.30;99.90
20654;DHT22;21083;50.898;4.902;2023-07-08T14:33:57;33.20;99.90
20654;DHT22;21083;50.898;4.902;2023-07-08T14:36:24;33.10;99.90
20654;DHT22;21083;50.898;4.902;2023-07-08T14:38:51;33.10;99.90
20654;DHT22;21083;50.898;4.902;2023-07-08T14:41:18;33.30;99.90
20654;DHT22;21083;50.898;4.902;2023-07-08T14:43:45;33.60;99.90
20654;DHT22;21083;50.898;4.902;2023-07-08T14:46:12;33.80;99.90
20654;DHT22;21083;50.898;4.902;2023-07-08T14:48:40;34.10;99.90
20654;DHT22;21083;50.898;4.902;2023-07-08T14:51:07;34.10;99.90
20654;DHT22;21083;50.898;4.902;2023-07-08T14:53:34;34.20;99.90
20654;DHT22;21083;50.898;4.902;2023-07-08T14:56:08;34.20;99.90
20654;DHT22;21083;50.898;4.902;2023-07-08T14:58:39;34.00;99.90
20654;DHT22;21083;50.898;4.902;2023-07-08T15:01:18;33.70;99.90
20654;DHT22;21083;50.898;4.902;2023-07-08T15:03:48;33.70;99.90
20654;DHT22;21083;50.898;4.902;2023-07-08T15:06:14;33.60;99.90
20654;DHT22;21083;50.898;4.902;2023-07-08T15:08:41;33.60;99.90
20654;DHT22;21083;50.898;4.902;2023-07-08T15:11:10;33.70;99.90
20654;DHT22;21083;50.898;4.902;2023-07-08T15:13:37;33.80;99.90
20654;DHT22;21083;50.898;4.902;2023-07-08T15:16:05;33.80;99.90
20654;DHT22;21083;50.898;4.902;2023-07-08T15:18:32;34.00;99.90
20654;DHT22;21083;50.898;4.902;2023-07-08T15:21:01;34.50;99.90
20654;DHT22;21083;50.898;4.902;2023-07-08T15:23:29;35.00;99.90
20654;DHT22;21083;50.898;4.902;2023-07-08T15:25:56;35.30;99.90
20654;DHT22;21083;50.898;4.902;2023-07-08T15:28:35;35.40;99.90
20654;DHT22;21083;50.898;4.902;2023-07-08T15:31:09;35.80;99.90
20654;DHT22;21083;50.898;4.902;2023-07-08T15:33:36;36.00;99.90
20654;DHT22;21083;50.898;4.902;2023-07-08T15:36:09;36.20;99.90
20654;DHT22;21083;50.898;4.902;2023-07-08T15:38:37;36.50;99.90
20654;DHT22;21083;50.898;4.902;2023-07-08T15:41:04;36.80;99.90
20654;DHT22;21083;50.898;4.902;2023-07-08T15:43:31;36.90;99.90
20654;DHT22;21083;50.898;4.902;2023-07-08T15:46:01;37.10;99.90
20654;DHT22;21083;50.898;4.902;2023-07-08T15:48:28;37.30;99.90